createdAt,value
2023-03-19T00:00:53.424Z,9.96
2023-03-19T00:03:21.408Z,9.94
2023-03-19T00:05:53.249Z,9.94
2023-03-19T00:08:21.040Z,9.85
2023-03-19T00:10:48.697Z,9.84
2023-03-19T00:13:16.717Z,9.85
2023-03-19T00:15:44.411Z,9.77
2023-03-19T00:18:13.417Z,9.82
2023-03-19T00:20:41.194Z,9.83
2023-03-19T00:23:09.089Z,9.84
2023-03-19T00:25:37.160Z,9.83
2023-03-19T00:28:05.010Z,9.78
2023-03-19T00:30:33.214Z,9.86
2023-03-19T00:33:01.316Z,9.85
2023-03-19T00:35:30.542Z,9.80
2023-03-19T00:37:58.750Z,9.84
2023-03-19T00:40:26.431Z,9.80
2023-03-19T00:42:54.379Z,9.86
2023-03-19T00:45:22.292Z,9.79
2023-03-19T00:47:50.031Z,9.81
2023-03-19T00:50:22.162Z,9.77
2023-03-19T00:52:54.336Z,9.70
2023-03-19T00:55:22.017Z,9.68
2023-03-19T00:57:50.092Z,9.63
2023-03-19T01:00:19.560Z,9.53
2023-03-19T01:02:47.235Z,9.53
2023-03-19T01:05:14.995Z,9.54
2023-03-19T01:07:42.630Z,9.56
2023-03-19T01:10:12.537Z,9.59
2023-03-19T01:12:40.177Z,9.55
2023-03-19T01:15:09.210Z,9.58
2023-03-19T01:17:37.667Z,9.52
2023-03-19T01:20:08.821Z,9.57
2023-03-19T01:22:37.632Z,9.58
2023-03-19T01:25:05.845Z,9.53
2023-03-19T01:27:34.837Z,9.55
2023-03-19T01:30:02.853Z,9.56
2023-03-19T01:32:31.176Z,9.53
2023-03-19T01:34:58.912Z,9.51
2023-03-19T01:37:26.628Z,9.49
2023-03-19T01:39:54.331Z,9.60
2023-03-19T01:42:21.998Z,9.70
2023-03-19T01:44:51.024Z,9.75
2023-03-19T01:47:27.030Z,9.75
2023-03-19T01:49:56.880Z,9.70
2023-03-19T01:52:26.417Z,9.72
2023-03-19T01:54:55.719Z,9.74
2023-03-19T01:57:25.175Z,9.72
2023-03-19T01:59:56.077Z,9.67
2023-03-19T02:02:29.346Z,9.72
2023-03-19T02:04:59.865Z,9.76
2023-03-19T02:07:29.649Z,9.80
2023-03-19T02:09:57.916Z,9.86
2023-03-19T02:12:25.631Z,9.88
2023-03-19T02:14:55.077Z,9.80
2023-03-19T02:17:23.035Z,9.80
2023-03-19T02:19:56.866Z,9.77
2023-03-19T02:22:28.794Z,9.70
2023-03-19T02:25:00.897Z,9.70
2023-03-19T02:27:29.951Z,9.71
2023-03-19T02:29:57.563Z,9.67
2023-03-19T02:32:25.323Z,9.68
2023-03-19T02:34:53.101Z,9.64
2023-03-19T02:37:23.612Z,9.74
2023-03-19T02:39:55.799Z,9.70
2023-03-19T02:42:26.200Z,9.76
2023-03-19T02:44:55.438Z,9.73
2023-03-19T02:47:23.579Z,9.83
2023-03-19T02:49:51.237Z,9.74
2023-03-19T02:52:20.681Z,9.78
2023-03-19T02:54:48.504Z,9.80
2023-03-19T02:57:16.460Z,9.85
2023-03-19T02:59:44.259Z,9.85
2023-03-19T03:02:13.653Z,9.93
2023-03-19T03:04:41.908Z,10.02
2023-03-19T03:07:10.263Z,9.94
2023-03-19T03:09:37.954Z,10.00
2023-03-19T03:12:07.166Z,9.94
2023-03-19T03:14:35.138Z,9.94
2023-03-19T03:17:03.122Z,10.04
2023-03-19T03:19:32.282Z,9.97
2023-03-19T03:22:00.966Z,9.92
2023-03-19T03:24:28.871Z,9.79
2023-03-19T03:26:56.637Z,9.72
2023-03-19T03:29:24.475Z,9.63
2023-03-19T03:31:52.319Z,9.66
2023-03-19T03:34:20.358Z,9.65
2023-03-19T03:36:49.318Z,9.64
2023-03-19T03:39:17.015Z,9.63
2023-03-19T03:41:44.693Z,9.63
2023-03-19T03:44:12.624Z,9.66
2023-03-19T03:46:40.539Z,9.69
2023-03-19T03:49:08.614Z,9.75
2023-03-19T03:51:36.562Z,9.84
2023-03-19T03:54:05.894Z,9.84
2023-03-19T03:56:34.080Z,9.87
2023-03-19T03:59:02.118Z,9.95
2023-03-19T04:01:29.836Z,10.10
2023-03-19T04:03:57.930Z,10.12
2023-03-19T04:06:27.269Z,10.07
2023-03-19T04:08:55.850Z,10.08
2023-03-19T04:11:24.810Z,9.68
2023-03-19T04:13:52.423Z,9.86
2023-03-19T04:16:20.036Z,10.04
2023-03-19T04:18:47.793Z,9.80
2023-03-19T04:21:15.738Z,9.69
2023-03-19T04:23:45.236Z,9.55
2023-03-19T04:26:13.166Z,9.55
2023-03-19T04:28:42.163Z,9.56
2023-03-19T04:31:10.829Z,9.59
2023-03-19T04:33:38.721Z,9.67
2023-03-19T04:36:07.307Z,9.66
2023-03-19T04:38:34.921Z,9.67
2023-03-19T04:41:02.678Z,9.76
2023-03-19T04:43:30.326Z,9.77
2023-03-19T04:45:59.477Z,9.86
2023-03-19T04:48:27.452Z,9.83
2023-03-19T04:50:57.072Z,10.02
2023-03-19T04:53:25.079Z,10.23
2023-03-19T04:55:52.726Z,10.16
2023-03-19T04:58:20.308Z,9.92
2023-03-19T05:00:48.254Z,9.71
2023-03-19T05:03:17.469Z,9.52
2023-03-19T05:05:45.249Z,9.49
2023-03-19T05:08:13.644Z,9.42
2023-03-19T05:10:41.643Z,9.37
2023-03-19T05:13:09.324Z,9.18
2023-03-19T05:15:37.266Z,9.25
2023-03-19T05:18:05.102Z,9.17
2023-03-19T05:20:34.305Z,9.10
2023-03-19T05:23:02.803Z,9.04
2023-03-19T05:25:30.533Z,9.04
2023-03-19T05:27:58.133Z,9.07
2023-03-19T05:30:27.312Z,9.22
2023-03-19T05:32:57.147Z,9.33
2023-03-19T05:35:24.793Z,9.44
2023-03-19T05:37:53.875Z,9.54
2023-03-19T05:40:22.225Z,9.56
2023-03-19T05:42:50.314Z,9.49
2023-03-19T05:45:18.424Z,9.38
2023-03-19T05:47:48.720Z,9.35
2023-03-19T05:50:16.665Z,9.30
2023-03-19T05:52:44.625Z,9.11
2023-03-19T05:55:13.697Z,8.93
2023-03-19T05:57:42.315Z,8.91
2023-03-19T06:00:12.400Z,8.96
2023-03-19T06:02:42.293Z,8.83
2023-03-19T06:05:10.954Z,8.73
2023-03-19T06:07:39.234Z,8.79
2023-03-19T06:10:07.993Z,8.71
2023-03-19T06:12:37.218Z,8.74
2023-03-19T06:15:05.510Z,8.60
2023-03-19T06:17:33.382Z,8.66
2023-03-19T06:20:01.173Z,8.58
2023-03-19T06:22:28.974Z,8.60
2023-03-19T06:24:56.608Z,8.66
2023-03-19T06:27:24.663Z,8.59
2023-03-19T06:29:53.626Z,8.65
2023-03-19T06:32:21.318Z,8.67
2023-03-19T06:34:48.953Z,8.76
2023-03-19T06:37:16.951Z,8.73
2023-03-19T06:39:44.607Z,8.55
2023-03-19T06:42:12.284Z,8.51
2023-03-19T06:44:40.207Z,8.57
2023-03-19T06:47:10.036Z,8.66
2023-03-19T06:49:37.598Z,8.79
2023-03-19T06:52:06.010Z,8.84
2023-03-19T06:54:33.807Z,8.87
2023-03-19T06:57:01.498Z,8.80
2023-03-19T06:59:29.180Z,8.72
2023-03-19T07:01:57.157Z,8.76
2023-03-19T07:04:26.815Z,8.83
2023-03-19T07:06:54.662Z,8.82
2023-03-19T07:09:23.463Z,8.84
2023-03-19T07:11:51.165Z,8.93
2023-03-19T07:14:18.841Z,9.08
2023-03-19T07:16:46.552Z,9.20
2023-03-19T07:19:14.201Z,9.31
2023-03-19T07:21:43.309Z,9.41
2023-03-19T07:24:11.033Z,9.52
2023-03-19T07:26:38.778Z,9.72
2023-03-19T07:29:06.478Z,9.86
2023-03-19T07:31:34.175Z,10.02
2023-03-19T07:34:01.825Z,10.08
2023-03-19T07:36:29.603Z,10.20
2023-03-19T07:38:58.848Z,10.28
2023-03-19T07:41:27.380Z,10.38
2023-03-19T07:43:55.031Z,10.44
2023-03-19T07:46:22.737Z,10.60
2023-03-19T07:48:50.390Z,10.50
2023-03-19T07:51:18.001Z,10.94
2023-03-19T07:53:45.697Z,11.20
2023-03-19T07:56:14.716Z,11.52
2023-03-19T07:58:42.385Z,11.69
2023-03-19T08:01:10.196Z,12.12
2023-03-19T08:03:38.551Z,12.35
2023-03-19T08:06:07.130Z,12.49
2023-03-19T08:08:35.010Z,13.16
2023-03-19T08:11:02.896Z,14.00
2023-03-19T08:13:31.948Z,13.73
2023-03-19T08:15:59.728Z,14.96
2023-03-19T08:18:27.700Z,15.37
2023-03-19T08:20:55.702Z,15.46
2023-03-19T08:23:23.446Z,15.59
2023-03-19T08:25:52.010Z,15.67
2023-03-19T08:28:19.703Z,15.69
2023-03-19T08:30:49.044Z,15.56
2023-03-19T08:33:17.314Z,15.09
2023-03-19T08:35:45.016Z,15.38
2023-03-19T08:38:12.717Z,15.44
2023-03-19T08:40:40.519Z,15.66
2023-03-19T08:43:08.314Z,15.81
2023-03-19T08:45:36.055Z,15.81
2023-03-19T08:48:05.257Z,16.00
2023-03-19T08:50:33.745Z,16.09
2023-03-19T08:53:01.627Z,16.50
2023-03-19T08:55:29.290Z,16.66
2023-03-19T08:57:56.880Z,16.05
2023-03-19T09:00:24.770Z,16.72
2023-03-19T09:02:52.482Z,15.83
2023-03-19T09:05:22.489Z,15.86
2023-03-19T09:07:51.984Z,16.27
2023-03-19T09:10:19.586Z,16.53
2023-03-19T09:12:48.564Z,16.34
2023-03-19T09:15:31.587Z,15.95
2023-03-19T09:18:15.110Z,15.85
2023-03-19T09:20:44.835Z,15.70
2023-03-19T09:23:12.495Z,15.64
2023-03-19T09:25:40.360Z,15.78
2023-03-19T09:28:08.140Z,15.87
2023-03-19T09:30:36.067Z,16.08
2023-03-19T09:33:05.729Z,15.97
2023-03-19T09:35:34.782Z,16.08
2023-03-19T09:38:04.241Z,15.94
2023-03-19T09:40:37.742Z,16.45
2023-03-19T09:43:42.545Z,18.15
2023-03-19T09:46:15.590Z,18.43
2023-03-19T09:48:50.515Z,18.73
2023-03-19T09:51:22.736Z,18.91
2023-03-19T09:53:57.382Z,19.36
2023-03-19T09:56:27.088Z,19.28
2023-03-19T09:58:54.949Z,19.21
2023-03-19T10:01:27.709Z,18.98
2023-03-19T10:04:09.413Z,19.72
2023-03-19T10:06:40.225Z,20.29
2023-03-19T10:09:27.059Z,20.85
2023-03-19T10:12:06.922Z,20.41
2023-03-19T10:14:53.289Z,20.30
2023-03-19T10:17:26.549Z,20.69
2023-03-19T10:19:59.290Z,20.57
2023-03-19T10:22:30.994Z,19.91
2023-03-19T10:25:01.164Z,19.85
2023-03-19T10:27:29.707Z,20.01
2023-03-19T10:29:57.844Z,20.37
2023-03-19T10:32:37.087Z,19.82
2023-03-19T10:35:10.219Z,20.13
2023-03-19T10:37:39.421Z,20.10
2023-03-19T10:40:18.608Z,19.67
2023-03-19T10:43:03.618Z,19.29
2023-03-19T10:45:34.596Z,19.01
2023-03-19T10:48:04.832Z,18.61
2023-03-19T10:50:36.086Z,18.71
2023-03-19T10:53:08.891Z,18.39
2023-03-19T10:55:37.917Z,18.35
2023-03-19T10:58:07.426Z,18.54
2023-03-19T11:00:36.353Z,18.33
2023-03-19T11:03:05.502Z,18.01
2023-03-19T11:05:34.798Z,18.09
2023-03-19T11:08:04.714Z,17.93
2023-03-19T11:10:35.931Z,17.85
2023-03-19T11:13:16.347Z,18.13
2023-03-19T11:15:44.156Z,17.76
2023-03-19T11:18:18.107Z,18.07
2023-03-19T11:20:51.778Z,17.95
2023-03-19T11:23:21.280Z,17.44
2023-03-19T11:25:52.354Z,17.52
2023-03-19T11:28:26.294Z,17.16
2023-03-19T11:31:03.573Z,17.04
2023-03-19T11:33:49.104Z,16.97
2023-03-19T11:36:23.524Z,16.63
2023-03-19T11:39:03.234Z,16.49
2023-03-19T11:41:41.828Z,16.51
2023-03-19T11:44:16.412Z,16.61
2023-03-19T11:46:54.303Z,15.93
2023-03-19T11:49:47.237Z,16.33
2023-03-19T11:52:22.086Z,16.53
2023-03-19T11:55:02.633Z,16.44
2023-03-19T11:57:46.384Z,16.31
2023-03-19T12:00:29.606Z,15.96
2023-03-19T12:03:17.809Z,15.87
2023-03-19T12:05:56.260Z,15.65
2023-03-19T12:08:39.387Z,15.41
2023-03-19T12:11:18.811Z,15.34
2023-03-19T12:13:59.504Z,15.27
2023-03-19T12:16:46.230Z,15.16
2023-03-19T12:19:32.025Z,15.40
2023-03-19T12:22:09.992Z,15.35
2023-03-19T12:24:57.636Z,15.14
2023-03-19T12:27:34.361Z,14.92
2023-03-19T12:30:07.444Z,15.00
2023-03-19T12:32:54.323Z,14.90
2023-03-19T12:35:27.387Z,14.98
2023-03-19T12:38:00.922Z,15.10
2023-03-19T12:40:34.180Z,14.83
2023-03-19T12:43:07.548Z,14.51
2023-03-19T12:45:37.664Z,14.37
2023-03-19T12:48:12.574Z,14.33
2023-03-19T12:50:43.522Z,14.11
2023-03-19T12:53:26.557Z,14.03
2023-03-19T12:55:58.827Z,14.03
2023-03-19T12:58:38.501Z,14.10
2023-03-19T13:01:13.454Z,14.04
2023-03-19T13:03:51.666Z,14.08
2023-03-19T13:06:24.249Z,14.04
2023-03-19T13:08:56.706Z,14.05
2023-03-19T13:11:35.704Z,14.11
2023-03-19T13:14:09.576Z,14.01
2023-03-19T13:16:45.332Z,14.02
2023-03-19T13:19:24.283Z,13.97
2023-03-19T13:21:55.435Z,13.98
2023-03-19T13:24:28.195Z,13.79
2023-03-19T13:26:58.711Z,13.69
2023-03-19T13:29:28.763Z,13.93
2023-03-19T13:32:02.553Z,14.06
2023-03-19T13:34:33.902Z,13.66
2023-03-19T13:37:07.990Z,13.86
2023-03-19T13:39:36.964Z,13.99
2023-03-19T13:42:37.505Z,14.05
2023-03-19T13:45:26.388Z,14.15
2023-03-19T13:47:54.669Z,14.51
2023-03-19T13:50:34.141Z,14.70
2023-03-19T13:53:37.216Z,14.38
2023-03-19T13:56:15.713Z,14.42
2023-03-19T13:58:52.066Z,14.83
2023-03-19T14:01:40.502Z,14.84
2023-03-19T14:04:18.697Z,14.65
2023-03-19T14:06:50.134Z,14.66
2023-03-19T14:09:35.831Z,14.93
2023-03-19T14:12:12.243Z,15.10
2023-03-19T14:14:43.662Z,15.08
2023-03-19T14:17:16.293Z,15.50
2023-03-19T14:19:44.519Z,15.83
2023-03-19T14:22:21.407Z,15.49
2023-03-19T14:25:02.972Z,16.31
2023-03-19T14:27:33.812Z,16.45
2023-03-19T14:30:09.316Z,16.76
2023-03-19T14:32:40.818Z,16.93
2023-03-19T14:35:16.166Z,17.35
2023-03-19T14:37:50.250Z,17.43
2023-03-19T14:40:21.827Z,17.53
2023-03-19T14:42:59.836Z,17.69
2023-03-19T14:45:42.628Z,17.16
2023-03-19T14:48:21.058Z,17.17
2023-03-19T14:50:58.808Z,17.17
2023-03-19T14:53:35.876Z,17.63
2023-03-19T14:56:11.188Z,17.46
2023-03-19T14:58:38.927Z,16.96
2023-03-19T15:01:08.472Z,17.83
2023-03-19T15:03:38.576Z,17.44
2023-03-19T15:06:11.006Z,17.23
2023-03-19T15:08:42.825Z,17.09
2023-03-19T15:11:39.883Z,17.07
2023-03-19T15:14:28.198Z,16.97
2023-03-19T15:17:02.787Z,16.57
2023-03-19T15:19:32.810Z,16.70
2023-03-19T15:22:14.116Z,16.18
2023-03-19T15:24:43.612Z,16.60
2023-03-19T15:27:19.260Z,16.27
2023-03-19T15:29:49.096Z,16.00
2023-03-19T15:35:27.293Z,16.94
2023-03-19T15:38:00.700Z,16.85
2023-03-19T15:40:32.498Z,16.71
2023-03-19T15:43:03.394Z,16.53
2023-03-19T15:45:34.485Z,16.73
2023-03-19T15:48:05.750Z,16.48
2023-03-19T15:50:36.891Z,16.31
2023-03-19T15:53:08.888Z,16.70
2023-03-19T15:55:38.727Z,16.20
2023-03-19T15:58:10.477Z,15.88
2023-03-19T16:00:40.213Z,15.31
2023-03-19T16:03:12.251Z,15.37
2023-03-19T16:05:40.495Z,15.25
2023-03-19T16:08:18.229Z,15.21
2023-03-19T16:10:47.579Z,15.09
2023-03-19T16:13:24.312Z,15.09
2023-03-19T16:15:57.162Z,14.81
2023-03-19T16:18:26.337Z,14.64
2023-03-19T16:21:06.969Z,14.78
2023-03-19T16:23:37.212Z,14.85
2023-03-19T16:26:17.795Z,14.89
2023-03-19T16:28:50.014Z,14.88
2023-03-19T16:31:23.258Z,15.01
2023-03-19T16:33:53.372Z,14.69
2023-03-19T16:36:22.437Z,14.60
2023-03-19T16:38:59.669Z,14.38
2023-03-19T16:41:33.689Z,14.40
2023-03-19T16:44:19.995Z,14.16
2023-03-19T16:46:47.685Z,14.28
2023-03-19T16:49:15.287Z,14.19
2023-03-19T16:51:43.206Z,13.99
2023-03-19T16:54:13.797Z,13.93
2023-03-19T16:56:42.981Z,13.95
2023-03-19T16:59:20.928Z,13.92
2023-03-19T17:01:48.586Z,13.89
2023-03-19T17:04:17.645Z,13.85
2023-03-19T17:06:45.430Z,13.82
2023-03-19T17:09:13.227Z,13.87
2023-03-19T17:11:44.008Z,13.86
2023-03-19T17:14:16.700Z,13.90
2023-03-19T17:16:48.389Z,13.95
2023-03-19T17:19:19.153Z,13.91
2023-03-19T17:21:48.019Z,13.89
2023-03-19T17:24:24.175Z,13.91
2023-03-19T17:26:54.206Z,14.03
2023-03-19T17:29:24.983Z,14.04
2023-03-19T17:31:53.596Z,14.08
2023-03-19T17:34:23.239Z,14.01
2023-03-19T17:36:53.188Z,14.05
2023-03-19T17:39:21.669Z,14.07
2023-03-19T17:41:49.550Z,13.95
2023-03-19T17:44:18.559Z,13.90
2023-03-19T17:46:49.831Z,13.88
2023-03-19T17:49:22.389Z,13.63
2023-03-19T17:51:51.367Z,13.28
2023-03-19T17:54:19.848Z,13.14
2023-03-19T17:56:47.725Z,12.94
2023-03-19T17:59:15.909Z,12.71
2023-03-19T18:01:47.329Z,12.63
2023-03-19T18:04:18.542Z,12.45
2023-03-19T18:06:49.549Z,12.45
2023-03-19T18:09:20.457Z,12.46
2023-03-19T18:11:48.500Z,12.44
2023-03-19T18:14:16.420Z,12.29
2023-03-19T18:16:47.385Z,12.29
2023-03-19T18:19:23.332Z,12.16
2023-03-19T18:21:51.301Z,12.13
2023-03-19T18:24:19.222Z,12.05
2023-03-19T18:26:47.119Z,11.94
2023-03-19T18:29:16.328Z,11.92
2023-03-19T18:31:49.226Z,12.02
2023-03-19T18:34:18.253Z,11.87
2023-03-19T18:36:46.167Z,12.08
2023-03-19T18:39:15.435Z,11.71
2023-03-19T18:41:43.855Z,11.83
2023-03-19T18:44:12.156Z,11.99
2023-03-19T18:46:40.372Z,12.01
2023-03-19T18:49:20.867Z,12.06
2023-03-19T18:52:01.703Z,11.85
2023-03-19T18:54:31.876Z,12.08
2023-03-19T18:57:01.164Z,11.91
2023-03-19T18:59:32.648Z,11.65
2023-03-19T19:02:03.419Z,11.45
2023-03-19T19:04:32.706Z,11.41
2023-03-19T19:07:01.592Z,11.23
2023-03-19T19:09:29.303Z,11.07
2023-03-19T19:12:00.705Z,11.19
2023-03-19T19:14:29.090Z,11.07
2023-03-19T19:16:57.061Z,10.86
2023-03-19T19:19:27.673Z,10.68
2023-03-19T19:21:56.870Z,10.70
2023-03-19T19:24:24.657Z,10.72
2023-03-19T19:26:54.137Z,10.37
2023-03-19T19:29:24.982Z,10.52
2023-03-19T19:31:53.898Z,10.35
2023-03-19T19:34:22.112Z,10.22
2023-03-19T19:36:51.029Z,10.06
2023-03-19T19:39:20.371Z,10.17
2023-03-19T19:41:48.838Z,10.01
2023-03-19T19:44:19.956Z,9.99
2023-03-19T19:46:47.765Z,9.86
2023-03-19T19:49:16.408Z,9.74
2023-03-19T19:51:44.096Z,9.87
2023-03-19T19:54:11.895Z,9.73
2023-03-19T19:56:41.777Z,9.65
2023-03-19T19:59:14.292Z,9.62
2023-03-19T20:01:42.088Z,9.44
2023-03-19T20:04:13.733Z,9.46
2023-03-19T20:06:41.504Z,9.46
2023-03-19T20:09:09.649Z,9.34
2023-03-19T20:11:37.697Z,9.41
2023-03-19T20:14:06.894Z,9.34
2023-03-19T20:16:34.693Z,9.29
2023-03-19T20:19:02.946Z,9.20
2023-03-19T20:21:30.919Z,9.17
2023-03-19T20:23:58.843Z,9.19
2023-03-19T20:26:27.044Z,9.11
2023-03-19T20:28:55.924Z,9.11
2023-03-19T20:31:27.340Z,9.03
2023-03-19T20:33:55.352Z,8.89
2023-03-19T20:36:23.236Z,9.03
2023-03-19T20:38:52.686Z,8.97
2023-03-19T20:41:22.838Z,9.09
2023-03-19T20:43:51.902Z,9.07
2023-03-19T20:46:21.719Z,9.00
2023-03-19T20:48:51.238Z,8.99
2023-03-19T20:51:21.364Z,8.95
2023-03-19T20:53:49.781Z,8.96
2023-03-19T20:56:19.294Z,8.95
2023-03-19T20:58:47.571Z,8.93
2023-03-19T21:01:17.884Z,8.92
2023-03-19T21:03:45.766Z,8.91
2023-03-19T21:06:19.257Z,8.89
2023-03-19T21:08:48.841Z,8.87
2023-03-19T21:11:18.906Z,8.94
2023-03-19T21:13:47.879Z,8.91
2023-03-19T21:16:18.572Z,8.98
2023-03-19T21:18:46.872Z,9.05
2023-03-19T21:21:17.579Z,9.01
2023-03-19T21:23:57.345Z,9.06
2023-03-19T21:26:26.008Z,9.05
2023-03-19T21:28:56.665Z,9.13
2023-03-19T21:31:24.394Z,9.08
2023-03-19T21:33:52.992Z,9.10
2023-03-19T21:36:22.180Z,9.21
2023-03-19T21:38:50.865Z,9.14
2023-03-19T21:41:23.708Z,9.20
2023-03-19T21:43:54.420Z,9.26
2023-03-19T21:46:26.224Z,9.29
2023-03-19T21:48:55.287Z,9.37
2023-03-19T21:51:25.499Z,9.43
2023-03-19T21:53:53.504Z,9.47
2023-03-19T21:56:24.090Z,9.43
2023-03-19T21:58:53.171Z,9.44
2023-03-19T22:01:23.559Z,9.46
2023-03-19T22:03:51.979Z,9.42
2023-03-19T22:06:19.801Z,9.43
2023-03-19T22:08:49.262Z,9.42
2023-03-19T22:11:19.663Z,9.40
2023-03-19T22:13:47.778Z,9.40
2023-03-19T22:16:19.991Z,9.44
2023-03-19T22:18:48.261Z,9.46
2023-03-19T22:21:17.857Z,9.44
2023-03-19T22:23:46.821Z,9.40
2023-03-19T22:26:30.269Z,9.45
2023-03-19T22:29:00.713Z,9.39
2023-03-19T22:31:29.218Z,9.40
2023-03-19T22:33:57.474Z,9.45
2023-03-19T22:36:25.567Z,9.45
2023-03-19T22:38:53.442Z,9.44
2023-03-19T22:41:28.872Z,9.44
2023-03-19T22:43:58.288Z,9.46
2023-03-19T22:46:26.622Z,9.43
2023-03-19T22:48:54.456Z,9.51
2023-03-19T22:51:24.942Z,9.41
2023-03-19T22:53:52.762Z,9.50
2023-03-19T22:56:22.029Z,9.47
2023-03-19T22:58:51.271Z,9.49
2023-03-19T23:01:35.669Z,9.49
2023-03-19T23:04:18.373Z,9.52
2023-03-19T23:06:46.582Z,9.55
2023-03-19T23:09:16.805Z,9.47
2023-03-19T23:11:45.061Z,9.51
2023-03-19T23:14:27.876Z,9.46
2023-03-19T23:16:56.715Z,9.49
2023-03-19T23:19:29.086Z,9.65
2023-03-19T23:21:57.808Z,9.78
2023-03-19T23:24:25.919Z,9.84
2023-03-19T23:26:56.017Z,9.63
2023-03-19T23:29:27.893Z,9.73
2023-03-19T23:31:55.758Z,9.92
2023-03-19T23:34:23.429Z,10.07
2023-03-19T23:36:51.058Z,10.13
2023-03-19T23:39:18.696Z,10.20
2023-03-19T23:41:49.615Z,10.14
2023-03-19T23:44:19.464Z,10.12
2023-03-19T23:46:50.805Z,10.19
2023-03-19T23:49:29.789Z,10.04
2023-03-19T23:51:57.885Z,10.08
2023-03-19T23:54:30.707Z,10.08
2023-03-19T23:57:00.043Z,10.04
2023-03-19T23:59:30.641Z,10.03
